RJA94P OJAQ-OMAL
Flight info
| Callsign | RJA94P |
|---|---|
| Flight time | N/A |
| Altitude | 37000 |
| Route | TAMIM DCT NIMAR DCT DOH/N0440F270 B415 SIXIV N318 KANIP |
| Aircraft | A319/M-SDE3FGHIRWY/LB1 |
Departure
| Time | N/A |
|---|---|
| Airport | King Hussein International Airport (OJAQ) |
Arrival
| Time | 2026-05-08 20:14 |
|---|---|
| Airport | Al Ain International Airport (OMAL) |
| Time | Latitude | Longitude | Altitude | Speed | Heading |
|---|---|---|---|---|---|
| 2026-05-08 18:38 | 27.64931 | 44.79381 | 37040 ft | 482 kts | 121° |
| 2026-05-08 18:38 | 27.62645 | 44.86496 | 37040 ft | 483 kts | 122° |
| 2026-05-08 18:39 | 27.60352 | 44.93616 | 37042 ft | 483 kts | 122° |
| 2026-05-08 18:39 | 27.58054 | 45.00737 | 37057 ft | 483 kts | 122° |
| 2026-05-08 18:40 | 27.55760 | 45.07841 | 37058 ft | 483 kts | 122° |
| 2026-05-08 18:40 | 27.53455 | 45.14959 | 37063 ft | 484 kts | 122° |
| 2026-05-08 18:41 | 27.51138 | 45.22092 | 37064 ft | 486 kts | 122° |
| 2026-05-08 18:41 | 27.48819 | 45.29233 | 37062 ft | 484 kts | 122° |
| 2026-05-08 18:42 | 27.46501 | 45.36355 | 37055 ft | 485 kts | 123° |
| 2026-05-08 18:42 | 27.44171 | 45.43484 | 37060 ft | 487 kts | 123° |
| 2026-05-08 18:43 | 27.41819 | 45.50663 | 37060 ft | 489 kts | 123° |
| 2026-05-08 18:43 | 27.39467 | 45.57840 | 37055 ft | 488 kts | 123° |
| 2026-05-08 18:44 | 27.37130 | 45.64959 | 37050 ft | 488 kts | 123° |
| 2026-05-08 18:44 | 27.34765 | 45.72131 | 37045 ft | 490 kts | 123° |
| 2026-05-08 18:45 | 27.32384 | 45.79337 | 37047 ft | 492 kts | 123° |
| 2026-05-08 18:45 | 27.29998 | 45.86550 | 37045 ft | 492 kts | 123° |
| 2026-05-08 18:46 | 27.27608 | 45.93764 | 37046 ft | 492 kts | 123° |
| 2026-05-08 18:46 | 27.25209 | 46.00981 | 37048 ft | 494 kts | 123° |
| 2026-05-08 18:47 | 27.22789 | 46.08236 | 37050 ft | 497 kts | 123° |
| 2026-05-08 18:47 | 27.20361 | 46.15516 | 37044 ft | 498 kts | 122° |
| 2026-05-08 18:48 | 27.17954 | 46.22735 | 37036 ft | 497 kts | 123° |
| 2026-05-08 18:48 | 27.15526 | 46.30000 | 37033 ft | 497 kts | 122° |
| 2026-05-08 18:49 | 27.13091 | 46.37264 | 37037 ft | 498 kts | 122° |
| 2026-05-08 18:49 | 27.10656 | 46.44522 | 37038 ft | 496 kts | 122° |
| 2026-05-08 18:50 | 27.08230 | 46.51742 | 37026 ft | 493 kts | 122° |
| 2026-05-08 18:50 | 27.05805 | 46.58935 | 37029 ft | 493 kts | 122° |
| 2026-05-08 18:51 | 27.03374 | 46.66129 | 37026 ft | 493 kts | 122° |
| 2026-05-08 18:51 | 27.00945 | 46.73304 | 37023 ft | 491 kts | 122° |
| 2026-05-08 18:52 | 26.98525 | 46.80444 | 37017 ft | 489 kts | 122° |
| 2026-05-08 18:52 | 26.96103 | 46.87569 | 37018 ft | 489 kts | 122° |
| 2026-05-08 18:53 | 26.93692 | 46.94644 | 37010 ft | 489 kts | 122° |
| 2026-05-08 18:53 | 26.91260 | 47.01768 | 37008 ft | 488 kts | 122° |
| 2026-05-08 18:54 | 26.88837 | 47.08862 | 37007 ft | 488 kts | 121° |
| 2026-05-08 18:54 | 26.86405 | 47.15960 | 37004 ft | 488 kts | 121° |
| 2026-05-08 18:55 | 26.82750 | 47.26612 | 36995 ft | 487 kts | 121° |
| 2026-05-08 18:56 | 26.80315 | 47.33687 | 36996 ft | 487 kts | 121° |
| 2026-05-08 18:56 | 26.77875 | 47.40765 | 36996 ft | 488 kts | 121° |
| 2026-05-08 18:57 | 26.75426 | 47.47855 | 36991 ft | 488 kts | 121° |
| 2026-05-08 18:57 | 26.72983 | 47.54928 | 36988 ft | 487 kts | 121° |
| 2026-05-08 18:58 | 26.70539 | 47.61986 | 36981 ft | 488 kts | 121° |
| 2026-05-08 18:58 | 26.68081 | 47.69064 | 36977 ft | 489 kts | 121° |
| 2026-05-08 18:59 | 26.65637 | 47.76096 | 36972 ft | 487 kts | 121° |
| 2026-05-08 18:59 | 26.63168 | 47.83192 | 36972 ft | 486 kts | 121° |
| 2026-05-08 19:00 | 26.60710 | 47.90241 | 36965 ft | 487 kts | 121° |
| 2026-05-08 19:00 | 26.58258 | 47.97257 | 36959 ft | 488 kts | 121° |
| 2026-05-08 19:01 | 26.55795 | 48.04304 | 36964 ft | 486 kts | 121° |
| 2026-05-08 19:01 | 26.53333 | 48.11334 | 36960 ft | 486 kts | 121° |
| 2026-05-08 19:02 | 26.50862 | 48.18358 | 36952 ft | 486 kts | 121° |
| 2026-05-08 19:02 | 26.48386 | 48.25388 | 36937 ft | 485 kts | 121° |
| 2026-05-08 19:03 | 26.45979 | 48.32221 | 36937 ft | 483 kts | 121° |
| 2026-05-08 19:03 | 26.43518 | 48.39190 | 36932 ft | 482 kts | 121° |
| 2026-05-08 19:04 | 26.41049 | 48.46159 | 36930 ft | 483 kts | 121° |
| 2026-05-08 19:04 | 26.38577 | 48.53126 | 36923 ft | 483 kts | 121° |
| 2026-05-08 19:05 | 26.36104 | 48.60087 | 36920 ft | 482 kts | 121° |
| 2026-05-08 19:05 | 26.33656 | 48.66972 | 36918 ft | 481 kts | 121° |
| 2026-05-08 19:06 | 26.31184 | 48.73907 | 36908 ft | 481 kts | 121° |
| 2026-05-08 19:06 | 26.28705 | 48.80843 | 36907 ft | 482 kts | 121° |
| 2026-05-08 19:07 | 26.26223 | 48.87778 | 36902 ft | 481 kts | 121° |
| 2026-05-08 19:07 | 26.23748 | 48.94685 | 36899 ft | 479 kts | 121° |
| 2026-05-08 19:08 | 26.21276 | 49.01576 | 36898 ft | 479 kts | 121° |
| 2026-05-08 19:08 | 26.18791 | 49.08480 | 36889 ft | 480 kts | 121° |
| 2026-05-08 19:09 | 26.16308 | 49.15370 | 36895 ft | 479 kts | 121° |
| 2026-05-08 19:09 | 26.13985 | 49.21804 | 36879 ft | 477 kts | 121° |
| 2026-05-08 19:10 | 26.11507 | 49.28658 | 36896 ft | 477 kts | 121° |
| 2026-05-08 19:10 | 26.09024 | 49.35508 | 36889 ft | 478 kts | 121° |
| 2026-05-08 19:11 | 26.06536 | 49.42364 | 36885 ft | 477 kts | 121° |
| 2026-05-08 19:11 | 26.04061 | 49.49175 | 36883 ft | 475 kts | 121° |
| 2026-05-08 19:12 | 26.01574 | 49.56004 | 36881 ft | 476 kts | 121° |
| 2026-05-08 19:12 | 25.99084 | 49.62828 | 36879 ft | 477 kts | 120° |
| 2026-05-08 19:13 | 25.96588 | 49.69660 | 36876 ft | 476 kts | 120° |
| 2026-05-08 19:13 | 25.94102 | 49.76458 | 36879 ft | 475 kts | 120° |
| 2026-05-08 19:14 | 25.91613 | 49.83251 | 36885 ft | 475 kts | 120° |
| 2026-05-08 19:14 | 25.89128 | 49.90011 | 36881 ft | 476 kts | 120° |
| 2026-05-08 19:15 | 25.86630 | 49.96802 | 36882 ft | 475 kts | 120° |
| 2026-05-08 19:15 | 25.84129 | 50.03592 | 36885 ft | 474 kts | 120° |
| 2026-05-08 19:16 | 25.81628 | 50.10370 | 36890 ft | 475 kts | 120° |
| 2026-05-08 19:16 | 25.79119 | 50.17155 | 36888 ft | 475 kts | 120° |
| 2026-05-08 19:17 | 25.76610 | 50.23932 | 36888 ft | 474 kts | 120° |
| 2026-05-08 19:17 | 25.74103 | 50.30698 | 36884 ft | 473 kts | 120° |
| 2026-05-08 19:18 | 25.71595 | 50.37449 | 36886 ft | 474 kts | 120° |
| 2026-05-08 19:18 | 25.69078 | 50.44211 | 36883 ft | 474 kts | 120° |
| 2026-05-08 19:19 | 25.66561 | 50.50961 | 36881 ft | 473 kts | 120° |
| 2026-05-08 19:19 | 25.64048 | 50.57696 | 36878 ft | 472 kts | 120° |
| 2026-05-08 19:20 | 25.61554 | 50.64363 | 36879 ft | 472 kts | 120° |
| 2026-05-08 19:20 | 25.59035 | 50.71086 | 36879 ft | 473 kts | 120° |
| 2026-05-08 19:21 | 25.56515 | 50.77806 | 36878 ft | 471 kts | 120° |
| 2026-05-08 19:21 | 25.54007 | 50.84482 | 36878 ft | 470 kts | 120° |
| 2026-05-08 19:22 | 25.51480 | 50.91195 | 36879 ft | 471 kts | 120° |
| 2026-05-08 19:22 | 25.48962 | 50.97871 | 36875 ft | 472 kts | 120° |
| 2026-05-08 19:23 | 25.46864 | 51.03430 | 36873 ft | 471 kts | 120° |
| 2026-05-08 19:23 | 25.44780 | 51.08945 | 36873 ft | 470 kts | 120° |
| 2026-05-08 19:24 | 25.42637 | 51.14604 | 36874 ft | 470 kts | 120° |
| 2026-05-08 19:24 | 25.40102 | 51.21288 | 36872 ft | 471 kts | 120° |
| 2026-05-08 19:25 | 25.37568 | 51.27963 | 36873 ft | 471 kts | 120° |
| 2026-05-08 19:25 | 25.35651 | 51.33003 | 36858 ft | 470 kts | 119° |
| 2026-05-08 19:26 | 25.33443 | 51.38803 | 36855 ft | 470 kts | 119° |
| 2026-05-08 19:26 | 25.30916 | 51.45432 | 36853 ft | 471 kts | 119° |
| 2026-05-08 19:27 | 25.28624 | 51.51439 | 36856 ft | 471 kts | 119° |
| 2026-05-08 19:27 | 25.26376 | 51.57345 | 36851 ft | 471 kts | 118° |
| 2026-05-08 19:28 | 25.24458 | 51.63133 | 36739 ft | 464 kts | 115° |
| 2026-05-08 19:28 | 25.23449 | 51.66469 | 36484 ft | 452 kts | 114° |
| 2026-05-08 19:28 | 25.22482 | 51.69741 | 36016 ft | 444 kts | 114° |
| 2026-05-08 19:28 | 25.21532 | 51.72982 | 35259 ft | 445 kts | 114° |
| 2026-05-08 19:29 | 25.20856 | 51.75287 | 34654 ft | 447 kts | 114° |
| 2026-05-08 19:29 | 25.19896 | 51.78567 | 33813 ft | 451 kts | 114° |
| 2026-05-08 19:29 | 25.18930 | 51.81871 | 32913 ft | 453 kts | 113° |
| 2026-05-08 19:29 | 25.18010 | 51.85032 | 32153 ft | 452 kts | 113° |
| 2026-05-08 19:30 | 25.17064 | 51.88293 | 31369 ft | 451 kts | 113° |
| 2026-05-08 19:30 | 25.16120 | 51.91545 | 30574 ft | 450 kts | 113° |
| 2026-05-08 19:30 | 25.15154 | 51.94873 | 29732 ft | 450 kts | 113° |
| 2026-05-08 19:30 | 25.14196 | 51.98164 | 28723 ft | 450 kts | 112° |
| 2026-05-08 19:31 | 25.13272 | 52.01317 | 27767 ft | 456 kts | 112° |
| 2026-05-08 19:31 | 25.12285 | 52.04674 | 27408 ft | 461 kts | 112° |
| 2026-05-08 19:31 | 25.11303 | 52.08037 | 27111 ft | 457 kts | 112° |
| 2026-05-08 19:31 | 25.10346 | 52.11338 | 26983 ft | 452 kts | 111° |
| 2026-05-08 19:32 | 25.09389 | 52.14647 | 26931 ft | 452 kts | 111° |
| 2026-05-08 19:32 | 25.08456 | 52.17969 | 26899 ft | 455 kts | 110° |
| 2026-05-08 19:32 | 25.07563 | 52.21327 | 26886 ft | 457 kts | 110° |
| 2026-05-08 19:32 | 25.06693 | 52.24702 | 26878 ft | 457 kts | 109° |
| 2026-05-08 19:33 | 25.05840 | 52.28079 | 26877 ft | 457 kts | 109° |
| 2026-05-08 19:33 | 25.04997 | 52.31456 | 26872 ft | 456 kts | 109° |
| 2026-05-08 19:33 | 25.04160 | 52.34830 | 26872 ft | 456 kts | 109° |
| 2026-05-08 19:33 | 25.03325 | 52.38207 | 26870 ft | 457 kts | 109° |
| 2026-05-08 19:34 | 25.02488 | 52.41598 | 26872 ft | 457 kts | 109° |
| 2026-05-08 19:34 | 25.01649 | 52.44988 | 26872 ft | 457 kts | 109° |
| 2026-05-08 19:34 | 25.00763 | 52.48361 | 26870 ft | 456 kts | 110° |
| 2026-05-08 19:34 | 24.99846 | 52.51658 | 26871 ft | 455 kts | 111° |
| 2026-05-08 19:35 | 24.98890 | 52.54986 | 26870 ft | 455 kts | 111° |
| 2026-05-08 19:35 | 24.97915 | 52.58310 | 26873 ft | 456 kts | 111° |
| 2026-05-08 19:35 | 24.96927 | 52.61637 | 26872 ft | 456 kts | 112° |
| 2026-05-08 19:35 | 24.95945 | 52.64967 | 26870 ft | 456 kts | 111° |
| 2026-05-08 19:36 | 24.95031 | 52.68322 | 26869 ft | 457 kts | 110° |
| 2026-05-08 19:36 | 24.94161 | 52.71690 | 26866 ft | 457 kts | 109° |
| 2026-05-08 19:36 | 24.93321 | 52.75026 | 26864 ft | 457 kts | 109° |
| 2026-05-08 19:36 | 24.92485 | 52.78400 | 26864 ft | 457 kts | 109° |
| 2026-05-08 19:37 | 24.91653 | 52.81782 | 26866 ft | 457 kts | 109° |
| 2026-05-08 19:37 | 24.90827 | 52.85160 | 26866 ft | 457 kts | 108° |
| 2026-05-08 19:37 | 24.89998 | 52.88554 | 26866 ft | 457 kts | 108° |
| 2026-05-08 19:37 | 24.89172 | 52.91936 | 26863 ft | 457 kts | 108° |
| 2026-05-08 19:38 | 24.88345 | 52.95324 | 26863 ft | 456 kts | 108° |
| 2026-05-08 19:38 | 24.87519 | 52.98705 | 26862 ft | 456 kts | 108° |
| 2026-05-08 19:38 | 24.86692 | 53.02087 | 26859 ft | 457 kts | 108° |
| 2026-05-08 19:38 | 24.86002 | 53.04904 | 26861 ft | 457 kts | 108° |
| 2026-05-08 19:39 | 24.85172 | 53.08292 | 26857 ft | 457 kts | 108° |
| 2026-05-08 19:39 | 24.84342 | 53.11677 | 26856 ft | 457 kts | 108° |
| 2026-05-08 19:39 | 24.83526 | 53.15003 | 26855 ft | 456 kts | 108° |
| 2026-05-08 19:39 | 24.82695 | 53.18389 | 26850 ft | 456 kts | 108° |
| 2026-05-08 19:40 | 24.81865 | 53.21764 | 26854 ft | 457 kts | 108° |
| 2026-05-08 19:40 | 24.81034 | 53.25134 | 26850 ft | 458 kts | 108° |
| 2026-05-08 19:40 | 24.80197 | 53.28529 | 26851 ft | 457 kts | 108° |
| 2026-05-08 19:40 | 24.79363 | 53.31903 | 26847 ft | 457 kts | 108° |
| 2026-05-08 19:41 | 24.78528 | 53.35276 | 26848 ft | 456 kts | 109° |
| 2026-05-08 19:41 | 24.77693 | 53.38642 | 26849 ft | 456 kts | 109° |
| 2026-05-08 19:41 | 24.76856 | 53.42014 | 26849 ft | 457 kts | 109° |
| 2026-05-08 19:41 | 24.76016 | 53.45396 | 26846 ft | 457 kts | 109° |
| 2026-05-08 19:42 | 24.75177 | 53.48765 | 26842 ft | 457 kts | 109° |
| 2026-05-08 19:42 | 24.74337 | 53.52140 | 26841 ft | 456 kts | 109° |
| 2026-05-08 19:42 | 24.73510 | 53.55456 | 26841 ft | 456 kts | 109° |
| 2026-05-08 19:42 | 24.72672 | 53.58816 | 26837 ft | 456 kts | 109° |
| 2026-05-08 19:43 | 24.71831 | 53.62182 | 26840 ft | 456 kts | 109° |
| 2026-05-08 19:43 | 24.70990 | 53.65549 | 26836 ft | 456 kts | 109° |
| 2026-05-08 19:43 | 24.70137 | 53.68960 | 26834 ft | 456 kts | 109° |
| 2026-05-08 19:43 | 24.69307 | 53.72275 | 26835 ft | 455 kts | 109° |
| 2026-05-08 19:44 | 24.68466 | 53.75631 | 26835 ft | 455 kts | 109° |
| 2026-05-08 19:44 | 24.67623 | 53.78991 | 26833 ft | 455 kts | 109° |
| 2026-05-08 19:44 | 24.66807 | 53.82240 | 26831 ft | 456 kts | 109° |
| 2026-05-08 19:44 | 24.65963 | 53.85597 | 26829 ft | 456 kts | 109° |
| 2026-05-08 19:45 | 24.65291 | 53.88267 | 26834 ft | 455 kts | 109° |
| 2026-05-08 19:45 | 24.64532 | 53.91320 | 26837 ft | 455 kts | 108° |
| 2026-05-08 19:45 | 24.63888 | 53.94024 | 26828 ft | 455 kts | 108° |
| 2026-05-08 19:46 | 24.63159 | 53.97175 | 26827 ft | 455 kts | 107° |
| 2026-05-08 19:46 | 24.62390 | 54.00563 | 26830 ft | 456 kts | 107° |
| 2026-05-08 19:46 | 24.60876 | 54.07329 | 26835 ft | 456 kts | 107° |
| 2026-05-08 19:47 | 24.60138 | 54.10651 | 26831 ft | 455 kts | 107° |
| 2026-05-08 19:47 | 24.59726 | 54.12507 | 26824 ft | 455 kts | 107° |
| 2026-05-08 19:47 | 24.59075 | 54.15437 | 26821 ft | 455 kts | 107° |
| 2026-05-08 19:47 | 24.58326 | 54.18804 | 26836 ft | 455 kts | 107° |
| 2026-05-08 19:48 | 24.57992 | 54.20309 | 26823 ft | 455 kts | 107° |
| 2026-05-08 19:48 | 24.57242 | 54.23678 | 26830 ft | 456 kts | 107° |
| 2026-05-08 19:48 | 24.56529 | 54.26881 | 26835 ft | 456 kts | 107° |
| 2026-05-08 19:48 | 24.55749 | 54.30381 | 26828 ft | 455 kts | 107° |
| 2026-05-08 19:49 | 24.55204 | 54.32822 | 26829 ft | 455 kts | 107° |
| 2026-05-08 19:49 | 24.54496 | 54.36108 | 26830 ft | 455 kts | 106° |
| 2026-05-08 19:49 | 24.53955 | 54.38769 | 26831 ft | 456 kts | 105° |
| 2026-05-08 19:49 | 24.53300 | 54.42121 | 26826 ft | 456 kts | 105° |
| 2026-05-08 19:50 | 24.52649 | 54.45554 | 26824 ft | 456 kts | 104° |
| 2026-05-08 19:50 | 24.52017 | 54.48953 | 26833 ft | 455 kts | 105° |
| 2026-05-08 19:50 | 24.51232 | 54.52317 | 26834 ft | 453 kts | 109° |
| 2026-05-08 19:50 | 24.50310 | 54.55625 | 26829 ft | 453 kts | 111° |
| 2026-05-08 19:51 | 24.49364 | 54.58796 | 26825 ft | 453 kts | 111° |
| 2026-05-08 19:51 | 24.48363 | 54.62035 | 26832 ft | 453 kts | 112° |
| 2026-05-08 19:51 | 24.47377 | 54.65165 | 26833 ft | 452 kts | 112° |
| 2026-05-08 19:51 | 24.46370 | 54.68322 | 26821 ft | 452 kts | 112° |
| 2026-05-08 19:52 | 24.45360 | 54.71465 | 26823 ft | 451 kts | 112° |
| 2026-05-08 19:52 | 24.44334 | 54.74644 | 26827 ft | 452 kts | 112° |
| 2026-05-08 19:52 | 24.43269 | 54.77937 | 26828 ft | 452 kts | 112° |
| 2026-05-08 19:52 | 24.42343 | 54.80794 | 26834 ft | 452 kts | 112° |
| 2026-05-08 19:53 | 24.41291 | 54.84037 | 26787 ft | 453 kts | 112° |
| 2026-05-08 19:53 | 24.40235 | 54.87290 | 26452 ft | 450 kts | 112° |
| 2026-05-08 19:53 | 24.39192 | 54.90500 | 25592 ft | 449 kts | 112° |
| 2026-05-08 19:53 | 24.38262 | 54.93355 | 24923 ft | 443 kts | 112° |
| 2026-05-08 19:54 | 24.37342 | 54.96179 | 24294 ft | 436 kts | 112° |
| 2026-05-08 19:54 | 24.36330 | 54.99293 | 23623 ft | 429 kts | 112° |
| 2026-05-08 19:54 | 24.35332 | 55.02360 | 22817 ft | 423 kts | 112° |
| 2026-05-08 19:54 | 24.34275 | 55.05256 | 22020 ft | 415 kts | 117° |
| 2026-05-08 19:55 | 24.33021 | 55.07925 | 21253 ft | 409 kts | 120° |
| 2026-05-08 19:55 | 24.31619 | 55.10617 | 20465 ft | 403 kts | 122° |
| 2026-05-08 19:55 | 24.30190 | 55.13225 | 19705 ft | 398 kts | 122° |
| 2026-05-08 19:55 | 24.28733 | 55.15802 | 18695 ft | 397 kts | 123° |
| 2026-05-08 19:56 | 24.27226 | 55.18415 | 17065 ft | 412 kts | 123° |
| 2026-05-08 19:56 | 24.25667 | 55.21099 | 15486 ft | 422 kts | 123° |
| 2026-05-08 19:56 | 24.24102 | 55.23778 | 14540 ft | 413 kts | 123° |
| 2026-05-08 19:56 | 24.22563 | 55.26400 | 13553 ft | 405 kts | 124° |
| 2026-05-08 19:57 | 24.21043 | 55.28976 | 12381 ft | 400 kts | 124° |
| 2026-05-08 19:57 | 24.19554 | 55.31606 | 11703 ft | 407 kts | 118° |
| 2026-05-08 19:57 | 24.18740 | 55.34447 | 11344 ft | 386 kts | 98° |
| 2026-05-08 19:57 | 24.18853 | 55.37292 | 11131 ft | 365 kts | 77° |
| 2026-05-08 19:58 | 24.19769 | 55.39647 | 11066 ft | 342 kts | 56° |
| 2026-05-08 19:58 | 24.21381 | 55.41426 | 11044 ft | 319 kts | 32° |
| 2026-05-08 19:58 | 24.23301 | 55.42512 | 10803 ft | 307 kts | 24° |
| 2026-05-08 19:58 | 24.25240 | 55.43481 | 10295 ft | 306 kts | 24° |
| 2026-05-08 19:59 | 24.27139 | 55.44514 | 9813 ft | 304 kts | 27° |
| 2026-05-08 19:59 | 24.28967 | 55.45661 | 9317 ft | 302 kts | 31° |
| 2026-05-08 19:59 | 24.30715 | 55.46918 | 8815 ft | 299 kts | 34° |
| 2026-05-08 19:59 | 24.32379 | 55.48257 | 8343 ft | 296 kts | 36° |
| 2026-05-08 20:00 | 24.34097 | 55.49472 | 7870 ft | 292 kts | 27° |
| 2026-05-08 20:00 | 24.35932 | 55.50398 | 7392 ft | 289 kts | 20° |
| 2026-05-08 20:00 | 24.37821 | 55.51106 | 6946 ft | 286 kts | 15° |
| 2026-05-08 20:00 | 24.39736 | 55.51650 | 6491 ft | 283 kts | 11° |
| 2026-05-08 20:01 | 24.41657 | 55.52070 | 6023 ft | 280 kts | 8° |
| 2026-05-08 20:01 | 24.43533 | 55.52585 | 5556 ft | 279 kts | 25° |
| 2026-05-08 20:01 | 24.44995 | 55.53905 | 5346 ft | 270 kts | 53° |
| 2026-05-08 20:01 | 24.45684 | 55.55776 | 5079 ft | 264 kts | 83° |
| 2026-05-08 20:02 | 24.45589 | 55.57789 | 4650 ft | 266 kts | 98° |
| 2026-05-08 20:02 | 24.45237 | 55.59792 | 4194 ft | 267 kts | 101° |
| 2026-05-08 20:02 | 24.45045 | 55.61799 | 3742 ft | 265 kts | 79° |
| 2026-05-08 20:02 | 24.45414 | 55.63760 | 3377 ft | 260 kts | 81° |
| 2026-05-08 20:03 | 24.45513 | 55.65681 | 3306 ft | 245 kts | 86° |
| 2026-05-08 20:03 | 24.45537 | 55.67507 | 3116 ft | 237 kts | 86° |
| 2026-05-08 20:03 | 24.45574 | 55.69326 | 2706 ft | 239 kts | 84° |
| 2026-05-08 20:03 | 24.45662 | 55.71134 | 2342 ft | 243 kts | 82° |
| 2026-05-08 20:04 | 24.45810 | 55.72956 | 2159 ft | 233 kts | 81° |
| 2026-05-08 20:04 | 24.46001 | 55.74679 | 2083 ft | 225 kts | 80° |
| 2026-05-08 20:04 | 24.46214 | 55.76399 | 2044 ft | 229 kts | 79° |
| 2026-05-08 20:04 | 24.46439 | 55.78119 | 2029 ft | 229 kts | 79° |
| 2026-05-08 20:05 | 24.46754 | 55.79992 | 2026 ft | 253 kts | 68° |
| 2026-05-08 20:05 | 24.47290 | 55.81090 | 2035 ft | 246 kts | 47° |
| 2026-05-08 20:05 | 24.49215 | 55.82327 | 2047 ft | 248 kts | 6° |
| 2026-05-08 20:05 | 24.51028 | 55.82269 | 2044 ft | 262 kts | 347° |
| 2026-05-08 20:06 | 24.52183 | 55.81927 | 2025 ft | 259 kts | 340° |
| 2026-05-08 20:06 | 24.53801 | 55.81074 | 2008 ft | 258 kts | 326° |
| 2026-05-08 20:06 | 24.55215 | 55.79875 | 2008 ft | 257 kts | 315° |
| 2026-05-08 20:06 | 24.56647 | 55.77829 | 2002 ft | 255 kts | 300° |
| 2026-05-08 20:07 | 24.57354 | 55.76045 | 1998 ft | 257 kts | 287° |
| 2026-05-08 20:07 | 24.57701 | 55.74127 | 2005 ft | 257 kts | 275° |
| 2026-05-08 20:07 | 24.57640 | 55.72168 | 1999 ft | 257 kts | 264° |
| 2026-05-08 20:07 | 24.57400 | 55.70872 | 1996 ft | 259 kts | 255° |
| 2026-05-08 20:08 | 24.56705 | 55.69044 | 2007 ft | 260 kts | 244° |
| 2026-05-08 20:08 | 24.55664 | 55.67413 | 2000 ft | 264 kts | 230° |
| 2026-05-08 20:08 | 24.54326 | 55.66085 | 2007 ft | 252 kts | 215° |
| 2026-05-08 20:08 | 24.52763 | 55.65247 | 2020 ft | 251 kts | 203° |
| 2026-05-08 20:09 | 24.51143 | 55.64680 | 2005 ft | 235 kts | 198° |
| 2026-05-08 20:09 | 24.49594 | 55.64291 | 2008 ft | 226 kts | 194° |
| 2026-05-08 20:09 | 24.48030 | 55.63992 | 2014 ft | 229 kts | 191° |
| 2026-05-08 20:09 | 24.46467 | 55.63756 | 2004 ft | 226 kts | 190° |
| 2026-05-08 20:10 | 24.44928 | 55.63549 | 2009 ft | 214 kts | 189° |
| 2026-05-08 20:10 | 24.43519 | 55.63366 | 2013 ft | 202 kts | 189° |
| 2026-05-08 20:10 | 24.42117 | 55.63182 | 2014 ft | 204 kts | 190° |
| 2026-05-08 20:10 | 24.40723 | 55.62993 | 2010 ft | 203 kts | 190° |
| 2026-05-08 20:11 | 24.39309 | 55.62799 | 2029 ft | 203 kts | 190° |
| 2026-05-08 20:11 | 24.37984 | 55.62618 | 2038 ft | 183 kts | 191° |
| 2026-05-08 20:11 | 24.36765 | 55.62448 | 2018 ft | 174 kts | 191° |
| 2026-05-08 20:11 | 24.35558 | 55.62272 | 2021 ft | 176 kts | 191° |
| 2026-05-08 20:12 | 24.34346 | 55.62093 | 2014 ft | 175 kts | 191° |
| 2026-05-08 20:12 | 24.33148 | 55.61919 | 2013 ft | 176 kts | 191° |
| 2026-05-08 20:12 | 24.31936 | 55.61741 | 1962 ft | 178 kts | 191° |
| 2026-05-08 20:12 | 24.30867 | 55.61581 | 1844 ft | 168 kts | 190° |
| 2026-05-08 20:13 | 24.30156 | 55.61477 | 1613 ft | 168 kts | 189° |
| 2026-05-08 20:13 | 24.29017 | 55.61300 | 1112 ft | 166 kts | 189° |
| 2026-05-08 20:13 | 24.27925 | 55.61151 | 839 ft | 151 kts | 187° |
| 2026-05-08 20:13 | 24.27075 | 55.61032 | 854 ft | 90 kts | 188° |
| 2026-05-08 20:14 | 24.26503 | 55.60946 | 849 ft | 74 kts | 188° |
| 2026-05-08 20:14 | 24.26142 | 55.60920 | 857 ft | 9 kts | 142° |
| 2026-05-08 20:14 | 24.26142 | 55.60940 | 849 ft | 9 kts | 67° |
| 2026-05-08 20:14 | 24.26147 | 55.61080 | 855 ft | 20 kts | 97° |
| 2026-05-08 20:15 | 24.26131 | 55.61210 | 860 ft | 14 kts | 96° |
| 2026-05-08 20:15 | 24.26120 | 55.61270 | 860 ft | 7 kts | 78° |
| 2026-05-08 20:15 | 24.26121 | 55.61310 | 860 ft | 10 kts | 90° |
| 2026-05-08 20:15 | 24.26112 | 55.61453 | 854 ft | 26 kts | 103° |